sensor_id;sensor_type;location;lat;lon;timestamp;P1;durP1;ratioP1;P2;durP2;ratioP2
75465;SDS011;64049;46.290;44.240;2023-04-25T00:02:22;3.45;;;1.33;;
75465;SDS011;64049;46.290;44.240;2023-04-25T00:04:48;8.20;;;1.50;;
75465;SDS011;64049;46.290;44.240;2023-04-25T00:07:14;7.07;;;2.00;;
75465;SDS011;64049;46.290;44.240;2023-04-25T00:09:41;5.45;;;2.38;;
75465;SDS011;64049;46.290;44.240;2023-04-25T00:12:07;3.45;;;1.40;;
75465;SDS011;64049;46.290;44.240;2023-04-25T00:14:33;13.18;;;2.38;;
75465;SDS011;64049;46.290;44.240;2023-04-25T00:17:00;6.13;;;2.10;;
75465;SDS011;64049;46.290;44.240;2023-04-25T00:19:29;5.63;;;1.23;;
75465;SDS011;64049;46.290;44.240;2023-04-25T00:21:55;4.95;;;1.73;;
75465;SDS011;64049;46.290;44.240;2023-04-25T00:24:21;4.95;;;1.42;;
75465;SDS011;64049;46.290;44.240;2023-04-25T00:26:46;4.57;;;1.23;;
75465;SDS011;64049;46.290;44.240;2023-04-25T00:29:13;5.68;;;1.63;;
75465;SDS011;64049;46.290;44.240;2023-04-25T00:31:39;4.15;;;1.60;;
75465;SDS011;64049;46.290;44.240;2023-04-25T00:34:05;2.88;;;1.55;;
75465;SDS011;64049;46.290;44.240;2023-04-25T00:36:34;6.10;;;1.50;;
75465;SDS011;64049;46.290;44.240;2023-04-25T00:39:02;6.07;;;1.70;;
75465;SDS011;64049;46.290;44.240;2023-04-25T00:41:29;4.55;;;1.67;;
75465;SDS011;64049;46.290;44.240;2023-04-25T00:43:55;14.02;;;1.80;;
75465;SDS011;64049;46.290;44.240;2023-04-25T00:46:23;4.82;;;1.60;;
75465;SDS011;64049;46.290;44.240;2023-04-25T00:48:49;6.85;;;1.70;;
75465;SDS011;64049;46.290;44.240;2023-04-25T00:51:21;8.75;;;2.28;;
75465;SDS011;64049;46.290;44.240;2023-04-25T00:53:48;9.18;;;2.38;;
75465;SDS011;64049;46.290;44.240;2023-04-25T00:56:16;6.43;;;1.33;;
75465;SDS011;64049;46.290;44.240;2023-04-25T00:58:42;9.15;;;1.95;;
75465;SDS011;64049;46.290;44.240;2023-04-25T01:01:08;8.50;;;2.17;;
75465;SDS011;64049;46.290;44.240;2023-04-25T01:03:37;7.43;;;2.08;;
75465;SDS011;64049;46.290;44.240;2023-04-25T01:06:07;9.48;;;1.67;;
75465;SDS011;64049;46.290;44.240;2023-04-25T01:11:01;5.72;;;1.88;;
75465;SDS011;64049;46.290;44.240;2023-04-25T01:13:27;7.13;;;1.67;;
75465;SDS011;64049;46.290;44.240;2023-04-25T01:15:53;10.98;;;2.00;;
75465;SDS011;64049;46.290;44.240;2023-04-25T01:18:20;6.13;;;1.55;;
75465;SDS011;64049;46.290;44.240;2023-04-25T01:20:46;10.23;;;2.83;;
75465;SDS011;64049;46.290;44.240;2023-04-25T01:23:12;6.40;;;1.85;;
75465;SDS011;64049;46.290;44.240;2023-04-25T01:25:39;10.02;;;1.90;;
75465;SDS011;64049;46.290;44.240;2023-04-25T01:28:06;9.38;;;2.33;;
75465;SDS011;64049;46.290;44.240;2023-04-25T01:30:33;8.43;;;2.63;;
75465;SDS011;64049;46.290;44.240;2023-04-25T01:33:00;6.80;;;2.45;;
75465;SDS011;64049;46.290;44.240;2023-04-25T01:35:27;5.60;;;1.85;;
75465;SDS011;64049;46.290;44.240;2023-04-25T01:37:53;8.00;;;2.22;;
75465;SDS011;64049;46.290;44.240;2023-04-25T01:40:20;6.80;;;2.67;;
75465;SDS011;64049;46.290;44.240;2023-04-25T01:42:47;7.70;;;1.60;;
75465;SDS011;64049;46.290;44.240;2023-04-25T01:45:14;7.30;;;2.50;;
75465;SDS011;64049;46.290;44.240;2023-04-25T01:47:41;7.88;;;2.08;;
75465;SDS011;64049;46.290;44.240;2023-04-25T01:50:09;5.75;;;2.40;;
75465;SDS011;64049;46.290;44.240;2023-04-25T01:52:37;10.50;;;2.20;;
75465;SDS011;64049;46.290;44.240;2023-04-25T01:55:03;8.95;;;2.80;;
75465;SDS011;64049;46.290;44.240;2023-04-25T01:57:34;18.85;;;4.40;;
75465;SDS011;64049;46.290;44.240;2023-04-25T02:00:02;5.10;;;2.25;;
75465;SDS011;64049;46.290;44.240;2023-04-25T02:02:37;5.47;;;2.25;;
75465;SDS011;64049;46.290;44.240;2023-04-25T02:05:06;9.75;;;2.40;;
75465;SDS011;64049;46.290;44.240;2023-04-25T02:07:36;8.50;;;3.28;;
75465;SDS011;64049;46.290;44.240;2023-04-25T02:10:03;10.38;;;3.10;;
75465;SDS011;64049;46.290;44.240;2023-04-25T02:12:34;12.63;;;2.28;;
75465;SDS011;64049;46.290;44.240;2023-04-25T02:15:24;9.18;;;2.45;;
75465;SDS011;64049;46.290;44.240;2023-04-25T02:17:54;8.90;;;2.67;;
75465;SDS011;64049;46.290;44.240;2023-04-25T02:20:21;5.55;;;1.83;;
75465;SDS011;64049;46.290;44.240;2023-04-25T02:22:48;8.40;;;2.50;;
75465;SDS011;64049;46.290;44.240;2023-04-25T02:25:14;10.20;;;2.58;;
75465;SDS011;64049;46.290;44.240;2023-04-25T02:27:41;8.90;;;2.47;;
75465;SDS011;64049;46.290;44.240;2023-04-25T02:30:08;11.60;;;3.22;;
75465;SDS011;64049;46.290;44.240;2023-04-25T02:32:34;7.03;;;2.22;;
75465;SDS011;64049;46.290;44.240;2023-04-25T02:35:01;7.13;;;1.98;;
75465;SDS011;64049;46.290;44.240;2023-04-25T02:37:31;11.27;;;2.08;;
75465;SDS011;64049;46.290;44.240;2023-04-25T02:39:57;6.97;;;2.35;;
75465;SDS011;64049;46.290;44.240;2023-04-25T02:42:23;11.40;;;2.72;;
75465;SDS011;64049;46.290;44.240;2023-04-25T02:44:49;5.60;;;2.03;;
75465;SDS011;64049;46.290;44.240;2023-04-25T02:47:15;11.55;;;2.60;;
75465;SDS011;64049;46.290;44.240;2023-04-25T02:49:42;9.85;;;1.98;;
75465;SDS011;64049;46.290;44.240;2023-04-25T02:52:08;6.28;;;2.03;;
75465;SDS011;64049;46.290;44.240;2023-04-25T02:54:34;13.05;;;2.60;;
75465;SDS011;64049;46.290;44.240;2023-04-25T02:57:01;3.83;;;1.45;;
75465;SDS011;64049;46.290;44.240;2023-04-25T02:59:34;9.52;;;2.05;;
75465;SDS011;64049;46.290;44.240;2023-04-25T03:02:00;5.43;;;2.17;;
75465;SDS011;64049;46.290;44.240;2023-04-25T03:04:26;10.75;;;2.47;;
75465;SDS011;64049;46.290;44.240;2023-04-25T03:06:52;12.32;;;1.98;;
75465;SDS011;64049;46.290;44.240;2023-04-25T03:09:21;11.35;;;2.80;;
75465;SDS011;64049;46.290;44.240;2023-04-25T03:11:47;10.38;;;2.10;;
75465;SDS011;64049;46.290;44.240;2023-04-25T03:14:13;10.05;;;1.95;;
75465;SDS011;64049;46.290;44.240;2023-04-25T03:16:39;8.07;;;2.17;;
75465;SDS011;64049;46.290;44.240;2023-04-25T03:19:05;5.93;;;1.85;;
75465;SDS011;64049;46.290;44.240;2023-04-25T03:21:32;12.98;;;3.13;;
75465;SDS011;64049;46.290;44.240;2023-04-25T03:24:00;9.45;;;2.25;;
75465;SDS011;64049;46.290;44.240;2023-04-25T03:26:27;7.22;;;2.28;;
75465;SDS011;64049;46.290;44.240;2023-04-25T03:32:13;11.55;;;3.15;;
75465;SDS011;64049;46.290;44.240;2023-04-25T03:34:40;6.90;;;3.03;;
75465;SDS011;64049;46.290;44.240;2023-04-25T03:40:28;6.78;;;2.83;;
75465;SDS011;64049;46.290;44.240;2023-04-25T03:43:41;10.23;;;2.72;;
75465;SDS011;64049;46.290;44.240;2023-04-25T03:46:12;14.20;;;2.65;;
75465;SDS011;64049;46.290;44.240;2023-04-25T03:48:39;6.90;;;2.47;;
75465;SDS011;64049;46.290;44.240;2023-04-25T03:54:17;6.28;;;2.55;;
75465;SDS011;64049;46.290;44.240;2023-04-25T03:56:56;7.40;;;2.33;;
75465;SDS011;64049;46.290;44.240;2023-04-25T03:59:26;13.48;;;3.08;;
75465;SDS011;64049;46.290;44.240;2023-04-25T04:02:03;8.35;;;2.13;;
75465;SDS011;64049;46.290;44.240;2023-04-25T04:04:33;6.03;;;2.20;;
75465;SDS011;64049;46.290;44.240;2023-04-25T04:09:35;6.97;;;2.53;;
75465;SDS011;64049;46.290;44.240;2023-04-25T04:12:06;4.72;;;2.42;;
75465;SDS011;64049;46.290;44.240;2023-04-25T04:14:33;7.47;;;2.88;;
75465;SDS011;64049;46.290;44.240;2023-04-25T04:16:59;5.88;;;2.70;;
75465;SDS011;64049;46.290;44.240;2023-04-25T04:22:24;5.07;;;2.35;;
75465;SDS011;64049;46.290;44.240;2023-04-25T04:24:53;7.25;;;3.40;;
75465;SDS011;64049;46.290;44.240;2023-04-25T04:27:43;7.10;;;3.10;;
75465;SDS011;64049;46.290;44.240;2023-04-25T04:30:33;7.13;;;3.33;;
75465;SDS011;64049;46.290;44.240;2023-04-25T04:33:04;8.05;;;3.55;;
75465;SDS011;64049;46.290;44.240;2023-04-25T04:35:30;6.18;;;2.78;;
75465;SDS011;64049;46.290;44.240;2023-04-25T04:37:57;5.03;;;2.38;;
75465;SDS011;64049;46.290;44.240;2023-04-25T04:43:14;4.53;;;1.67;;
75465;SDS011;64049;46.290;44.240;2023-04-25T04:46:01;9.48;;;1.85;;
75465;SDS011;64049;46.290;44.240;2023-04-25T04:48:29;3.67;;;1.73;;
75465;SDS011;64049;46.290;44.240;2023-04-25T04:51:37;3.58;;;1.02;;
75465;SDS011;64049;46.290;44.240;2023-04-25T04:54:24;3.40;;;1.50;;
75465;SDS011;64049;46.290;44.240;2023-04-25T04:57:06;2.85;;;1.23;;
75465;SDS011;64049;46.290;44.240;2023-04-25T04:59:54;3.17;;;0.98;;
75465;SDS011;64049;46.290;44.240;2023-04-25T05:02:46;3.60;;;1.27;;
75465;SDS011;64049;46.290;44.240;2023-04-25T05:05:32;2.25;;;0.98;;
75465;SDS011;64049;46.290;44.240;2023-04-25T05:08:24;7.53;;;1.17;;
75465;SDS011;64049;46.290;44.240;2023-04-25T05:11:10;2.83;;;0.90;;
75465;SDS011;64049;46.290;44.240;2023-04-25T05:14:02;2.03;;;0.80;;
75465;SDS011;64049;46.290;44.240;2023-04-25T05:16:54;2.55;;;0.93;;
75465;SDS011;64049;46.290;44.240;2023-04-25T05:19:36;3.05;;;0.95;;
75465;SDS011;64049;46.290;44.240;2023-04-25T05:22:20;2.50;;;0.70;;
75465;SDS011;64049;46.290;44.240;2023-04-25T05:25:12;2.53;;;0.80;;
75465;SDS011;64049;46.290;44.240;2023-04-25T05:28:11;3.20;;;1.15;;
75465;SDS011;64049;46.290;44.240;2023-04-25T05:30:56;4.20;;;1.20;;
75465;SDS011;64049;46.290;44.240;2023-04-25T05:33:29;3.28;;;1.08;;
75465;SDS011;64049;46.290;44.240;2023-04-25T05:35:55;2.90;;;0.98;;
75465;SDS011;64049;46.290;44.240;2023-04-25T05:38:22;2.83;;;1.13;;
75465;SDS011;64049;46.290;44.240;2023-04-25T05:41:07;1.92;;;0.70;;
75465;SDS011;64049;46.290;44.240;2023-04-25T05:43:42;1.88;;;0.73;;
75465;SDS011;64049;46.290;44.240;2023-04-25T05:46:21;6.65;;;1.17;;
75465;SDS011;64049;46.290;44.240;2023-04-25T05:49:04;2.95;;;0.90;;
75465;SDS011;64049;46.290;44.240;2023-04-25T05:51:50;1.75;;;0.70;;
75465;SDS011;64049;46.290;44.240;2023-04-25T05:54:39;1.98;;;0.63;;
75465;SDS011;64049;46.290;44.240;2023-04-25T05:57:05;3.72;;;0.95;;
75465;SDS011;64049;46.290;44.240;2023-04-25T05:59:32;1.75;;;0.73;;
75465;SDS011;64049;46.290;44.240;2023-04-25T06:01:58;4.03;;;0.70;;
75465;SDS011;64049;46.290;44.240;2023-04-25T06:04:25;2.25;;;0.88;;
75465;SDS011;64049;46.290;44.240;2023-04-25T06:06:53;2.42;;;1.00;;
75465;SDS011;64049;46.290;44.240;2023-04-25T06:09:19;2.13;;;0.60;;
75465;SDS011;64049;46.290;44.240;2023-04-25T06:11:45;3.00;;;0.88;;
75465;SDS011;64049;46.290;44.240;2023-04-25T06:14:11;2.50;;;0.85;;
75465;SDS011;64049;46.290;44.240;2023-04-25T06:16:42;2.42;;;0.90;;
75465;SDS011;64049;46.290;44.240;2023-04-25T06:19:07;3.53;;;0.90;;
75465;SDS011;64049;46.290;44.240;2023-04-25T06:21:33;1.95;;;1.00;;
75465;SDS011;64049;46.290;44.240;2023-04-25T06:23:59;3.55;;;0.95;;
75465;SDS011;64049;46.290;44.240;2023-04-25T06:26:27;2.10;;;0.73;;
75465;SDS011;64049;46.290;44.240;2023-04-25T06:28:53;3.60;;;1.00;;
75465;SDS011;64049;46.290;44.240;2023-04-25T06:31:19;2.50;;;0.88;;
75465;SDS011;64049;46.290;44.240;2023-04-25T06:33:47;1.58;;;0.73;;
75465;SDS011;64049;46.290;44.240;2023-04-25T06:36:13;1.63;;;0.70;;
75465;SDS011;64049;46.290;44.240;2023-04-25T06:38:41;3.30;;;0.80;;
75465;SDS011;64049;46.290;44.240;2023-04-25T06:41:07;2.13;;;0.80;;
75465;SDS011;64049;46.290;44.240;2023-04-25T06:43:35;2.17;;;0.88;;
75465;SDS011;64049;46.290;44.240;2023-04-25T06:46:07;1.92;;;0.70;;
75465;SDS011;64049;46.290;44.240;2023-04-25T06:48:40;3.38;;;1.08;;
75465;SDS011;64049;46.290;44.240;2023-04-25T06:51:06;4.72;;;0.90;;
75465;SDS011;64049;46.290;44.240;2023-04-25T06:53:33;2.03;;;0.73;;
75465;SDS011;64049;46.290;44.240;2023-04-25T06:56:02;2.63;;;0.82;;
75465;SDS011;64049;46.290;44.240;2023-04-25T06:58:44;1.58;;;0.50;;
75465;SDS011;64049;46.290;44.240;2023-04-25T07:01:15;4.25;;;0.80;;
75465;SDS011;64049;46.290;44.240;2023-04-25T07:03:41;2.15;;;0.70;;
75465;SDS011;64049;46.290;44.240;2023-04-25T07:06:13;1.98;;;0.70;;
75465;SDS011;64049;46.290;44.240;2023-04-25T07:08:39;3.60;;;1.10;;
75465;SDS011;64049;46.290;44.240;2023-04-25T07:11:06;1.75;;;0.55;;
75465;SDS011;64049;46.290;44.240;2023-04-25T07:13:32;1.45;;;0.70;;
75465;SDS011;64049;46.290;44.240;2023-04-25T07:15:58;2.08;;;0.47;;
75465;SDS011;64049;46.290;44.240;2023-04-25T07:18:28;1.48;;;0.50;;
75465;SDS011;64049;46.290;44.240;2023-04-25T07:20:54;3.03;;;0.60;;
75465;SDS011;64049;46.290;44.240;2023-04-25T07:23:20;2.30;;;0.60;;
75465;SDS011;64049;46.290;44.240;2023-04-25T07:25:46;2.05;;;0.70;;
75465;SDS011;64049;46.290;44.240;2023-04-25T07:28:17;1.15;;;0.50;;
75465;SDS011;64049;46.290;44.240;2023-04-25T07:30:43;2.10;;;0.55;;
75465;SDS011;64049;46.290;44.240;2023-04-25T07:33:09;2.05;;;0.70;;
75465;SDS011;64049;46.290;44.240;2023-04-25T07:35:35;1.73;;;0.50;;
75465;SDS011;64049;46.290;44.240;2023-04-25T07:38:01;2.42;;;0.60;;
75465;SDS011;64049;46.290;44.240;2023-04-25T07:40:28;2.60;;;0.80;;
75465;SDS011;64049;46.290;44.240;2023-04-25T07:43:01;2.55;;;0.52;;
75465;SDS011;64049;46.290;44.240;2023-04-25T07:45:37;1.08;;;0.43;;
75465;SDS011;64049;46.290;44.240;2023-04-25T07:48:04;2.13;;;0.60;;
75465;SDS011;64049;46.290;44.240;2023-04-25T07:50:33;1.30;;;0.40;;
75465;SDS011;64049;46.290;44.240;2023-04-25T07:52:59;1.02;;;0.40;;
75465;SDS011;64049;46.290;44.240;2023-04-25T07:55:31;1.55;;;0.60;;
75465;SDS011;64049;46.290;44.240;2023-04-25T07:58:11;2.42;;;0.73;;
75465;SDS011;64049;46.290;44.240;2023-04-25T08:00:41;0.40;;;0.30;;
75465;SDS011;64049;46.290;44.240;2023-04-25T08:03:42;1.92;;;0.50;;
75465;SDS011;64049;46.290;44.240;2023-04-25T08:06:15;0.95;;;0.32;;
75465;SDS011;64049;46.290;44.240;2023-04-25T08:08:53;0.63;;;0.30;;
75465;SDS011;64049;46.290;44.240;2023-04-25T08:11:23;2.25;;;0.60;;
75465;SDS011;64049;46.290;44.240;2023-04-25T08:13:49;1.25;;;0.40;;
75465;SDS011;64049;46.290;44.240;2023-04-25T08:16:20;2.88;;;0.70;;
75465;SDS011;64049;46.290;44.240;2023-04-25T08:18:47;1.55;;;0.47;;
75465;SDS011;64049;46.290;44.240;2023-04-25T08:21:12;0.93;;;0.43;;
75465;SDS011;64049;46.290;44.240;2023-04-25T08:23:38;1.27;;;0.50;;
75465;SDS011;64049;46.290;44.240;2023-04-25T08:26:11;2.28;;;0.60;;
75465;SDS011;64049;46.290;44.240;2023-04-25T08:28:39;0.85;;;0.30;;
75465;SDS011;64049;46.290;44.240;2023-04-25T08:31:05;1.40;;;0.45;;
75465;SDS011;64049;46.290;44.240;2023-04-25T08:33:41;1.88;;;0.55;;
75465;SDS011;64049;46.290;44.240;2023-04-25T08:36:21;3.47;;;0.80;;
75465;SDS011;64049;46.290;44.240;2023-04-25T08:38:50;1.70;;;0.70;;
75465;SDS011;64049;46.290;44.240;2023-04-25T08:41:18;1.10;;;0.40;;
75465;SDS011;64049;46.290;44.240;2023-04-25T08:43:47;7.15;;;0.82;;
75465;SDS011;64049;46.290;44.240;2023-04-25T08:46:15;1.58;;;0.40;;
75465;SDS011;64049;46.290;44.240;2023-04-25T08:49:05;3.75;;;0.80;;
75465;SDS011;64049;46.290;44.240;2023-04-25T08:51:32;3.08;;;0.63;;
75465;SDS011;64049;46.290;44.240;2023-04-25T08:54:08;1.70;;;0.55;;
75465;SDS011;64049;46.290;44.240;2023-04-25T08:56:38;1.38;;;0.45;;
75465;SDS011;64049;46.290;44.240;2023-04-25T08:59:07;2.60;;;0.70;;
75465;SDS011;64049;46.290;44.240;2023-04-25T09:01:35;2.55;;;0.70;;
75465;SDS011;64049;46.290;44.240;2023-04-25T09:04:01;2.42;;;0.63;;
75465;SDS011;64049;46.290;44.240;2023-04-25T09:06:31;2.30;;;0.43;;
75465;SDS011;64049;46.290;44.240;2023-04-25T09:09:04;1.77;;;0.50;;
75465;SDS011;64049;46.290;44.240;2023-04-25T09:11:32;2.28;;;0.40;;
75465;SDS011;64049;46.290;44.240;2023-04-25T09:17:17;4.20;;;0.95;;
75465;SDS011;64049;46.290;44.240;2023-04-25T09:19:50;1.35;;;0.45;;
75465;SDS011;64049;46.290;44.240;2023-04-25T09:22:26;2.65;;;0.60;;
75465;SDS011;64049;46.290;44.240;2023-04-25T09:24:55;4.30;;;0.70;;
75465;SDS011;64049;46.290;44.240;2023-04-25T09:27:25;3.67;;;0.65;;
75465;SDS011;64049;46.290;44.240;2023-04-25T09:30:30;1.15;;;0.40;;
75465;SDS011;64049;46.290;44.240;2023-04-25T09:33:05;1.63;;;0.60;;
75465;SDS011;64049;46.290;44.240;2023-04-25T09:35:36;2.38;;;0.63;;
75465;SDS011;64049;46.290;44.240;2023-04-25T09:38:09;4.15;;;0.90;;
75465;SDS011;64049;46.290;44.240;2023-04-25T09:41:05;1.85;;;1.05;;
75465;SDS011;64049;46.290;44.240;2023-04-25T09:43:39;2.30;;;0.77;;
75465;SDS011;64049;46.290;44.240;2023-04-25T09:46:09;2.25;;;0.60;;
75465;SDS011;64049;46.290;44.240;2023-04-25T09:48:39;2.08;;;0.50;;
75465;SDS011;64049;46.290;44.240;2023-04-25T09:51:10;4.40;;;0.80;;
75465;SDS011;64049;46.290;44.240;2023-04-25T09:53:41;1.65;;;0.60;;
75465;SDS011;64049;46.290;44.240;2023-04-25T09:56:21;2.28;;;0.57;;
75465;SDS011;64049;46.290;44.240;2023-04-25T09:58:49;0.80;;;0.40;;
75465;SDS011;64049;46.290;44.240;2023-04-25T10:01:18;2.97;;;0.65;;
75465;SDS011;64049;46.290;44.240;2023-04-25T10:03:59;0.98;;;0.43;;
75465;SDS011;64049;46.290;44.240;2023-04-25T10:06:39;1.85;;;0.50;;
75465;SDS011;64049;46.290;44.240;2023-04-25T10:09:08;1.58;;;0.65;;
75465;SDS011;64049;46.290;44.240;2023-04-25T10:11:36;1.88;;;0.50;;
75465;SDS011;64049;46.290;44.240;2023-04-25T10:14:03;2.50;;;0.80;;
75465;SDS011;64049;46.290;44.240;2023-04-25T10:16:31;2.45;;;0.60;;
75465;SDS011;64049;46.290;44.240;2023-04-25T10:18:58;4.00;;;0.90;;
75465;SDS011;64049;46.290;44.240;2023-04-25T10:21:24;3.85;;;0.80;;
75465;SDS011;64049;46.290;44.240;2023-04-25T10:23:52;2.50;;;0.80;;
75465;SDS011;64049;46.290;44.240;2023-04-25T10:26:18;1.70;;;0.63;;
75465;SDS011;64049;46.290;44.240;2023-04-25T10:28:55;1.33;;;0.50;;
75465;SDS011;64049;46.290;44.240;2023-04-25T10:31:25;1.35;;;0.40;;
75465;SDS011;64049;46.290;44.240;2023-04-25T10:33:54;2.67;;;0.63;;
75465;SDS011;64049;46.290;44.240;2023-04-25T10:36:21;1.55;;;0.55;;
75465;SDS011;64049;46.290;44.240;2023-04-25T10:38:48;1.83;;;0.70;;
75465;SDS011;64049;46.290;44.240;2023-04-25T10:41:20;1.85;;;0.60;;
75465;SDS011;64049;46.290;44.240;2023-04-25T10:43:48;2.00;;;0.60;;
75465;SDS011;64049;46.290;44.240;2023-04-25T10:48:47;1.67;;;0.52;;
75465;SDS011;64049;46.290;44.240;2023-04-25T10:51:21;1.65;;;0.57;;
75465;SDS011;64049;46.290;44.240;2023-04-25T10:53:58;2.60;;;0.73;;
75465;SDS011;64049;46.290;44.240;2023-04-25T10:56:28;5.65;;;0.90;;
75465;SDS011;64049;46.290;44.240;2023-04-25T10:59:08;1.75;;;0.60;;
75465;SDS011;64049;46.290;44.240;2023-04-25T11:01:48;3.70;;;0.80;;
75465;SDS011;64049;46.290;44.240;2023-04-25T11:04:23;2.30;;;0.65;;
75465;SDS011;64049;46.290;44.240;2023-04-25T11:09:23;4.75;;;0.80;;
75465;SDS011;64049;46.290;44.240;2023-04-25T11:11:54;1.80;;;0.60;;
75465;SDS011;64049;46.290;44.240;2023-04-25T11:14:20;5.78;;;0.55;;
75465;SDS011;64049;46.290;44.240;2023-04-25T11:16:47;1.48;;;0.73;;
75465;SDS011;64049;46.290;44.240;2023-04-25T11:19:19;2.17;;;0.70;;
75465;SDS011;64049;46.290;44.240;2023-04-25T11:21:45;1.85;;;0.60;;
75465;SDS011;64049;46.290;44.240;2023-04-25T11:24:11;1.40;;;0.50;;
75465;SDS011;64049;46.290;44.240;2023-04-25T11:26:37;2.45;;;0.50;;
75465;SDS011;64049;46.290;44.240;2023-04-25T11:29:03;1.42;;;0.40;;
75465;SDS011;64049;46.290;44.240;2023-04-25T11:31:29;2.05;;;0.50;;
75465;SDS011;64049;46.290;44.240;2023-04-25T11:33:58;1.17;;;0.50;;
75465;SDS011;64049;46.290;44.240;2023-04-25T11:36:25;2.67;;;0.77;;
75465;SDS011;64049;46.290;44.240;2023-04-25T11:38:52;1.67;;;0.50;;
75465;SDS011;64049;46.290;44.240;2023-04-25T11:41:19;3.47;;;0.63;;
75465;SDS011;64049;46.290;44.240;2023-04-25T11:43:47;1.48;;;0.50;;
75465;SDS011;64049;46.290;44.240;2023-04-25T11:46:14;1.15;;;0.50;;
75465;SDS011;64049;46.290;44.240;2023-04-25T11:48:43;2.63;;;0.80;;
75465;SDS011;64049;46.290;44.240;2023-04-25T11:51:09;0.93;;;0.40;;
75465;SDS011;64049;46.290;44.240;2023-04-25T11:53:35;2.05;;;0.88;;
75465;SDS011;64049;46.290;44.240;2023-04-25T11:56:01;1.92;;;0.63;;
75465;SDS011;64049;46.290;44.240;2023-04-25T11:58:53;4.00;;;0.77;;
75465;SDS011;64049;46.290;44.240;2023-04-25T12:01:29;1.92;;;0.47;;
75465;SDS011;64049;46.290;44.240;2023-04-25T12:03:58;1.77;;;0.70;;
75465;SDS011;64049;46.290;44.240;2023-04-25T12:06:39;2.88;;;0.50;;
75465;SDS011;64049;46.290;44.240;2023-04-25T12:09:09;1.38;;;0.68;;
75465;SDS011;64049;46.290;44.240;2023-04-25T12:14:09;2.63;;;0.60;;
75465;SDS011;64049;46.290;44.240;2023-04-25T12:16:42;4.10;;;0.80;;
75465;SDS011;64049;46.290;44.240;2023-04-25T12:19:09;1.35;;;0.45;;
75465;SDS011;64049;46.290;44.240;2023-04-25T12:21:39;1.73;;;0.50;;
75465;SDS011;64049;46.290;44.240;2023-04-25T12:24:11;5.40;;;1.33;;
75465;SDS011;64049;46.290;44.240;2023-04-25T12:26:48;1.10;;;0.63;;
75465;SDS011;64049;46.290;44.240;2023-04-25T12:29:19;1.45;;;0.40;;
75465;SDS011;64049;46.290;44.240;2023-04-25T12:31:51;1.45;;;0.40;;
75465;SDS011;64049;46.290;44.240;2023-04-25T12:36:44;1.67;;;0.40;;
75465;SDS011;64049;46.290;44.240;2023-04-25T12:39:17;1.23;;;0.50;;
75465;SDS011;64049;46.290;44.240;2023-04-25T12:41:45;5.35;;;0.77;;
75465;SDS011;64049;46.290;44.240;2023-04-25T12:44:11;2.65;;;0.65;;
75465;SDS011;64049;46.290;44.240;2023-04-25T12:46:38;2.00;;;0.60;;
75465;SDS011;64049;46.290;44.240;2023-04-25T12:49:05;2.63;;;0.60;;
75465;SDS011;64049;46.290;44.240;2023-04-25T12:51:33;1.00;;;0.60;;
75465;SDS011;64049;46.290;44.240;2023-04-25T12:54:02;1.70;;;0.50;;
75465;SDS011;64049;46.290;44.240;2023-04-25T12:56:29;1.73;;;0.40;;
75465;SDS011;64049;46.290;44.240;2023-04-25T12:58:57;2.22;;;0.90;;
75465;SDS011;64049;46.290;44.240;2023-04-25T13:01:23;3.53;;;0.65;;
75465;SDS011;64049;46.290;44.240;2023-04-25T13:03:50;3.83;;;0.63;;
75465;SDS011;64049;46.290;44.240;2023-04-25T13:06:16;2.45;;;0.70;;
75465;SDS011;64049;46.290;44.240;2023-04-25T13:08:43;5.30;;;0.65;;
75465;SDS011;64049;46.290;44.240;2023-04-25T13:11:09;0.70;;;0.40;;
75465;SDS011;64049;46.290;44.240;2023-04-25T13:13:36;2.50;;;0.57;;
75465;SDS011;64049;46.290;44.240;2023-04-25T13:16:03;6.00;;;0.98;;
75465;SDS011;64049;46.290;44.240;2023-04-25T13:18:32;1.80;;;0.50;;
75465;SDS011;64049;46.290;44.240;2023-04-25T13:20:58;1.17;;;0.50;;
75465;SDS011;64049;46.290;44.240;2023-04-25T13:23:25;1.88;;;0.60;;
75465;SDS011;64049;46.290;44.240;2023-04-25T13:28:18;2.55;;;0.50;;
75465;SDS011;64049;46.290;44.240;2023-04-25T13:30:44;5.07;;;0.70;;
75465;SDS011;64049;46.290;44.240;2023-04-25T13:33:12;1.08;;;0.30;;
75465;SDS011;64049;46.290;44.240;2023-04-25T13:35:38;6.05;;;1.05;;
75465;SDS011;64049;46.290;44.240;2023-04-25T13:38:04;1.80;;;0.35;;
75465;SDS011;64049;46.290;44.240;2023-04-25T13:40:30;5.38;;;0.70;;
75465;SDS011;64049;46.290;44.240;2023-04-25T13:42:57;2.00;;;0.57;;
75465;SDS011;64049;46.290;44.240;2023-04-25T13:45:24;1.88;;;0.60;;
75465;SDS011;64049;46.290;44.240;2023-04-25T13:47:50;2.80;;;0.70;;
75465;SDS011;64049;46.290;44.240;2023-04-25T13:50:16;0.90;;;0.30;;
75465;SDS011;64049;46.290;44.240;2023-04-25T13:52:42;1.95;;;0.60;;
75465;SDS011;64049;46.290;44.240;2023-04-25T13:55:08;2.30;;;0.43;;
75465;SDS011;64049;46.290;44.240;2023-04-25T13:57:35;2.10;;;0.70;;
75465;SDS011;64049;46.290;44.240;2023-04-25T14:00:03;1.70;;;0.40;;
75465;SDS011;64049;46.290;44.240;2023-04-25T14:02:37;2.13;;;0.60;;
75465;SDS011;64049;46.290;44.240;2023-04-25T14:05:03;2.90;;;0.70;;
75465;SDS011;64049;46.290;44.240;2023-04-25T14:07:33;1.27;;;0.35;;
75465;SDS011;64049;46.290;44.240;2023-04-25T14:10:00;1.10;;;0.45;;
75465;SDS011;64049;46.290;44.240;2023-04-25T14:12:26;0.63;;;0.30;;
75465;SDS011;64049;46.290;44.240;2023-04-25T14:14:52;2.38;;;0.80;;
75465;SDS011;64049;46.290;44.240;2023-04-25T14:17:18;2.22;;;0.60;;
75465;SDS011;64049;46.290;44.240;2023-04-25T14:19:47;3.55;;;0.50;;
75465;SDS011;64049;46.290;44.240;2023-04-25T14:22:14;3.65;;;0.80;;
75465;SDS011;64049;46.290;44.240;2023-04-25T14:24:40;1.73;;;0.60;;
75465;SDS011;64049;46.290;44.240;2023-04-25T14:27:07;1.80;;;0.50;;
75465;SDS011;64049;46.290;44.240;2023-04-25T14:29:33;4.43;;;0.80;;
75465;SDS011;64049;46.290;44.240;2023-04-25T14:31:59;2.53;;;0.57;;
75465;SDS011;64049;46.290;44.240;2023-04-25T14:34:25;1.27;;;0.43;;
75465;SDS011;64049;46.290;44.240;2023-04-25T14:36:52;1.58;;;0.40;;
75465;SDS011;64049;46.290;44.240;2023-04-25T14:39:18;2.72;;;0.63;;
75465;SDS011;64049;46.290;44.240;2023-04-25T14:41:44;2.83;;;0.70;;
75465;SDS011;64049;46.290;44.240;2023-04-25T14:44:10;1.55;;;0.60;;
75465;SDS011;64049;46.290;44.240;2023-04-25T14:46:36;2.13;;;0.60;;
75465;SDS011;64049;46.290;44.240;2023-04-25T14:49:03;1.95;;;0.40;;
75465;SDS011;64049;46.290;44.240;2023-04-25T14:51:29;2.30;;;0.60;;
75465;SDS011;64049;46.290;44.240;2023-04-25T14:53:56;2.90;;;0.60;;
75465;SDS011;64049;46.290;44.240;2023-04-25T14:56:22;2.13;;;0.45;;
75465;SDS011;64049;46.290;44.240;2023-04-25T14:58:48;2.25;;;0.63;;
75465;SDS011;64049;46.290;44.240;2023-04-25T15:01:14;4.03;;;0.50;;
75465;SDS011;64049;46.290;44.240;2023-04-25T15:03:40;1.40;;;0.55;;
75465;SDS011;64049;46.290;44.240;2023-04-25T15:06:06;3.53;;;0.57;;
75465;SDS011;64049;46.290;44.240;2023-04-25T15:08:33;2.35;;;1.00;;
75465;SDS011;64049;46.290;44.240;2023-04-25T15:10:59;4.47;;;1.00;;
75465;SDS011;64049;46.290;44.240;2023-04-25T15:13:25;1.90;;;0.65;;
75465;SDS011;64049;46.290;44.240;2023-04-25T15:15:52;6.03;;;0.90;;
75465;SDS011;64049;46.290;44.240;2023-04-25T15:18:22;2.00;;;0.55;;
75465;SDS011;64049;46.290;44.240;2023-04-25T15:20:52;4.97;;;0.70;;
75465;SDS011;64049;46.290;44.240;2023-04-25T15:23:19;5.00;;;0.95;;
75465;SDS011;64049;46.290;44.240;2023-04-25T15:25:45;3.65;;;0.80;;
75465;SDS011;64049;46.290;44.240;2023-04-25T15:28:11;4.53;;;0.63;;